Time;durP1;ratioP1;P1;durP2;ratioP2;P2;SDS_P1;SDS_P2;PMS_P1;PMS_P2;Temp;Humidity;BMP_temperature;BMP_pressure;BME280_temperature;BME280_humidity;BME280_pressure;Samples;Min_cycle;Max_cycle;Signal;HPM_P1;HPM_P2
2022/02/22 00:00:26;;;;;;;1.00;0.40;;;;;;;7.15;72.04;97669.84;5038761;28;20147;-60
2022/02/22 00:02:51;;;;;;;0.30;0.30;;;;;;;7.04;73.79;97661.59;5041931;28;20075;-61
2022/02/22 00:05:17;;;;;;;1.07;0.33;;;;;;;7.01;74.97;97658.22;5038733;28;20487;-59
2022/02/22 00:07:43;;;;;;;0.50;0.50;;;;;;;6.95;76.05;97660.91;5038804;28;20550;-58
2022/02/22 00:10:10;;;;;;;0.50;0.50;;;;;;;6.94;77.91;97665.19;5041075;28;20483;-58
2022/02/22 00:12:36;;;;;;;0.40;0.40;;;;;;;6.93;79.19;97665.19;5042370;28;20697;-61
2022/02/22 00:15:02;;;;;;;0.60;0.60;;;;;;;6.79;80.88;97662.91;5039523;28;20044;-61
2022/02/22 00:17:28;;;;;;;0.50;0.50;;;;;;;6.81;81.63;97658.66;5044357;28;20466;-61
2022/02/22 00:19:54;;;;;;;0.37;0.37;;;;;;;6.68;83.91;97688.59;5036270;28;20045;-59
2022/02/22 00:22:20;;;;;;;0.50;0.50;;;;;;;6.67;84.54;97697.09;5037451;28;20081;-61
2022/02/22 00:24:45;;;;;;;0.50;0.50;;;;;;;6.71;84.08;97667.31;5034199;28;20040;-62
2022/02/22 00:27:11;;;;;;;0.40;0.40;;;;;;;6.71;83.67;97672.41;5034795;28;20141;-62
2022/02/22 00:29:37;;;;;;;0.57;0.50;;;;;;;6.80;82.77;97701.09;5036257;28;20041;-60
2022/02/22 00:32:03;;;;;;;0.40;0.40;;;;;;;6.76;83.95;97688.44;5038366;28;20041;-61
2022/02/22 00:34:28;;;;;;;0.50;0.50;;;;;;;6.70;85.86;97697.06;5035238;28;20045;-60
2022/02/22 00:36:54;;;;;;;0.40;0.40;;;;;;;6.69;87.07;97704.72;5036195;28;20047;-62
2022/02/22 00:39:19;;;;;;;0.40;0.40;;;;;;;6.64;87.94;97709.06;5039326;28;20068;-61
2022/02/22 00:41:44;;;;;;;0.63;0.50;;;;;;;6.56;88.95;97716.00;5037961;28;20030;-60
2022/02/22 00:44:10;;;;;;;0.43;0.43;;;;;;;6.53;90.11;97710.97;5033296;28;20120;-58
2022/02/22 00:46:35;;;;;;;0.50;0.50;;;;;;;6.42;92.60;97706.06;5033722;28;20466;-60
2022/02/22 00:49:01;;;;;;;0.40;0.40;;;;;;;6.33;95.22;97731.66;5036487;28;20100;-59
2022/02/22 00:51:26;;;;;;;0.40;0.40;;;;;;;6.28;95.79;97719.00;5036715;28;20045;-59
2022/02/22 00:53:51;;;;;;;0.40;0.40;;;;;;;6.32;94.76;97724.91;5032682;28;20498;-60
2022/02/22 00:56:17;;;;;;;0.50;0.50;;;;;;;6.38;94.16;97738.38;5032970;28;20152;-59
2022/02/22 00:58:42;;;;;;;0.47;0.47;;;;;;;6.38;93.89;97745.16;5035691;28;20048;-59
2022/02/22 01:01:11;;;;;;;0.40;0.40;;;;;;;6.38;93.78;97781.63;5037483;28;20043;-59
2022/02/22 01:03:37;;;;;;;1.20;0.70;;;;;;;6.38;94.40;97751.09;5033079;28;20072;-58
2022/02/22 01:06:02;;;;;;;0.70;0.70;;;;;;;6.33;97.59;97757.13;5035580;28;20135;-59
2022/02/22 01:08:27;;;;;;;0.53;0.53;;;;;;;6.17;100.00;97761.63;5037253;28;20164;-60
2022/02/22 01:10:53;;;;;;;0.73;0.50;;;;;;;6.16;100.00;97779.44;5033838;28;20073;-59
2022/02/22 01:13:21;;;;;;;0.50;0.50;;;;;;;6.15;100.00;97786.25;5032647;28;20077;-58
2022/02/22 01:15:48;;;;;;;0.43;0.43;;;;;;;6.16;100.00;97818.47;5033485;28;20478;-59
2022/02/22 01:18:13;;;;;;;0.83;0.43;;;;;;;6.20;99.09;97811.63;5032802;28;20159;-58
2022/02/22 01:20:38;;;;;;;0.50;0.50;;;;;;;6.10;99.85;97805.00;5032343;28;20060;-60
2022/02/22 01:23:04;;;;;;;0.57;0.57;;;;;;;6.12;99.52;97805.81;5032302;28;20635;-58
2022/02/22 01:25:29;;;;;;;0.40;0.40;;;;;;;6.07;99.03;97823.69;5037342;28;20044;-62
2022/02/22 01:27:55;;;;;;;0.60;0.60;;;;;;;6.02;98.01;97805.13;5037607;28;20048;-60
2022/02/22 01:30:21;;;;;;;1.73;0.80;;;;;;;6.04;95.94;97794.91;5035259;28;20044;-59
2022/02/22 01:32:46;;;;;;;0.30;0.30;;;;;;;5.97;97.05;97827.22;5033688;28;20710;-60
2022/02/22 01:35:13;;;;;;;0.60;0.60;;;;;;;5.95;96.70;97819.59;5032961;28;20057;-60
2022/02/22 01:37:38;;;;;;;0.50;0.50;;;;;;;5.92;96.39;97821.34;5036786;28;20775;-59
2022/02/22 01:40:06;;;;;;;0.70;0.50;;;;;;;5.87;93.77;97848.56;5035009;28;20059;-60
2022/02/22 01:42:31;;;;;;;2.00;0.80;;;;;;;5.81;95.91;97854.50;5033498;28;20509;-60
2022/02/22 01:44:57;;;;;;;0.60;0.60;;;;;;;5.82;97.04;97865.53;5032828;28;20046;-60
2022/02/22 01:47:22;;;;;;;0.83;0.83;;;;;;;5.77;99.78;97867.31;5037315;28;20050;-60
2022/02/22 01:49:48;;;;;;;0.60;0.60;;;;;;;5.69;100.00;97864.00;5035249;28;20128;-60
2022/02/22 01:52:14;;;;;;;0.50;0.50;;;;;;;5.68;100.00;97901.31;5032422;28;20128;-60
2022/02/22 01:54:39;;;;;;;0.73;0.73;;;;;;;5.55;100.00;97912.50;5033219;28;20046;-61
2022/02/22 01:57:06;;;;;;;0.57;0.57;;;;;;;5.39;100.00;97899.06;5039812;28;20103;-62
2022/02/22 01:59:31;;;;;;;1.23;0.70;;;;;;;5.16;100.00;97898.47;5034814;28;20041;-61
2022/02/22 02:01:57;;;;;;;0.73;0.73;;;;;;;5.07;100.00;97898.56;5033337;28;20041;-60
2022/02/22 02:04:28;;;;;;;1.17;1.07;;;;;;;5.01;100.00;97901.97;5032769;28;20041;-60
2022/02/22 02:06:54;;;;;;;5.50;0.70;;;;;;;5.05;100.00;97905.34;5036647;28;20045;-59
2022/02/22 02:09:20;;;;;;;3.23;0.80;;;;;;;5.02;100.00;97890.97;5034895;28;20040;-60
2022/02/22 02:12:03;;;;;;;1.50;0.80;;;;;;;4.96;100.00;97898.66;5035696;28;20248;-58
2022/02/22 02:14:29;;;;;;;0.77;0.73;;;;;;;4.97;100.00;97907.09;5035229;28;20041;-60
2022/02/22 02:16:56;;;;;;;0.60;0.60;;;;;;;5.06;100.00;97905.31;5038855;28;20148;-59
2022/02/22 02:19:22;;;;;;;0.60;0.60;;;;;;;5.07;100.00;97913.78;5035449;28;20069;-59
2022/02/22 02:21:49;;;;;;;0.70;0.70;;;;;;;5.12;100.00;97904.44;5032096;28;20129;-62
2022/02/22 02:24:18;;;;;;;0.73;0.73;;;;;;;5.17;100.00;97904.41;5031838;28;20978;-60
2022/02/22 02:26:45;;;;;;;0.60;0.60;;;;;;;5.15;100.00;97901.88;5033300;28;20042;-60
2022/02/22 02:29:12;;;;;;;0.67;0.60;;;;;;;5.11;100.00;97879.88;5032558;28;20038;-58
2022/02/22 02:31:39;;;;;;;0.83;0.50;;;;;;;5.12;100.00;97901.91;5032141;28;20798;-59
2022/02/22 02:34:06;;;;;;;1.60;0.70;;;;;;;5.13;100.00;97918.00;5036060;28;20041;-58
2022/02/22 02:36:34;;;;;;;1.17;0.70;;;;;;;5.15;100.00;97901.88;5033180;28;20029;-59
2022/02/22 02:39:00;;;;;;;0.73;0.73;;;;;;;5.15;100.00;97904.41;5032443;28;20136;-60
2022/02/22 02:41:26;;;;;;;0.60;0.60;;;;;;;5.05;100.00;97901.09;5034676;28;20095;-58
2022/02/22 02:43:51;;;;;;;0.67;0.67;;;;;;;5.03;100.00;97912.13;5034144;28;20125;-60
2022/02/22 02:46:17;;;;;;;1.77;0.60;;;;;;;5.01;100.00;97917.22;5033310;28;20044;-58
2022/02/22 02:48:42;;;;;;;1.03;0.80;;;;;;;5.02;100.00;97907.91;5031395;28;20053;-62
2022/02/22 02:51:08;;;;;;;2.13;0.90;;;;;;;4.99;100.00;97920.66;5034333;28;20406;-59
2022/02/22 02:53:33;;;;;;;1.80;1.07;;;;;;;4.94;100.00;97919.84;5032162;28;20059;-60
2022/02/22 02:55:59;;;;;;;0.57;0.53;;;;;;;4.95;100.00;97940.16;5030823;28;20047;-60
2022/02/22 02:58:24;;;;;;;0.60;0.50;;;;;;;5.01;100.00;97940.09;5031104;28;20033;-61
2022/02/22 03:00:50;;;;;;;1.03;0.70;;;;;;;5.03;100.00;97927.38;5033351;28;20037;-59
2022/02/22 03:03:15;;;;;;;0.57;0.50;;;;;;;5.11;100.00;97955.25;5033915;28;20076;-60
2022/02/22 03:05:40;;;;;;;7.27;6.60;;;;;;;5.12;100.00;97956.94;5030014;28;20554;-59
2022/02/22 03:08:06;;;;;;;75.43;68.70;;;;;;;5.05;100.00;97968.84;5033669;28;20043;-59
2022/02/22 03:10:31;;;;;;;8.37;7.77;;;;;;;5.04;100.00;97960.41;5036405;28;20179;-60
2022/02/22 03:12:57;;;;;;;31.73;29.10;;;;;;;5.05;100.00;97964.59;5033984;28;20052;-59
2022/02/22 03:15:22;;;;;;;8.30;6.23;;;;;;;5.08;100.00;97963.75;5030606;28;20471;-61
2022/02/22 03:17:47;;;;;;;1.53;0.70;;;;;;;5.05;100.00;97977.31;5032075;28;20207;-61
2022/02/22 03:20:13;;;;;;;0.73;0.73;;;;;;;5.08;100.00;97973.91;5033400;28;20745;-61
2022/02/22 03:22:43;;;;;;;2.30;0.60;;;;;;;5.02;100.00;97977.34;5032116;28;20091;-60
2022/02/22 03:25:09;;;;;;;1.53;0.97;;;;;;;4.83;100.00;97974.94;5030356;28;20039;-60
2022/02/22 03:27:35;;;;;;;1.07;0.97;;;;;;;4.72;100.00;97987.69;5031737;28;20059;-60
2022/02/22 03:30:00;;;;;;;1.73;1.03;;;;;;;4.54;100.00;98001.34;5032321;28;20045;-60
2022/02/22 03:32:26;;;;;;;1.57;0.70;;;;;;;4.44;100.00;97997.19;5036315;28;20061;-59
2022/02/22 03:34:51;;;;;;;62.17;58.27;;;;;;;4.38;100.00;98027.66;5030737;28;20465;-58
2022/02/22 03:37:16;;;;;;;2.37;1.07;;;;;;;4.25;100.00;98038.69;5033254;28;20026;-59
2022/02/22 03:39:42;;;;;;;172.03;151.70;;;;;;;3.82;100.00;98030.34;5035760;28;20506;-61
2022/02/22 03:42:07;;;;;;;1.97;1.07;;;;;;;3.51;100.00;98027.03;5033114;28;20487;-61
2022/02/22 03:44:33;;;;;;;2.47;0.90;;;;;;;3.45;100.00;98019.44;5031951;28;20079;-61
2022/02/22 03:46:58;;;;;;;31.90;29.87;;;;;;;3.39;100.00;98037.19;5032531;28;20101;-62
2022/02/22 03:49:24;;;;;;;1.23;1.13;;;;;;;3.33;100.00;98042.25;5033272;28;20044;-62
2022/02/22 03:51:49;;;;;;;1.80;1.13;;;;;;;3.32;100.00;98043.09;5034410;28;20049;-62
2022/02/22 03:54:14;;;;;;;1.40;1.30;;;;;;;3.33;100.00;98054.91;5030911;28;20037;-62
2022/02/22 03:56:40;;;;;;;4.43;1.80;;;;;;;3.44;100.00;98063.34;5031578;28;20530;-60
2022/02/22 03:59:05;;;;;;;1.70;1.20;;;;;;;3.45;100.00;98049.84;5033394;28;20060;-61
2022/02/22 04:01:30;;;;;;;2.03;1.20;;;;;;;3.41;100.00;98043.09;5030623;28;20033;-60
2022/02/22 04:03:56;;;;;;;3.93;2.27;;;;;;;3.39;100.00;98049.88;5038947;28;20175;-59
2022/02/22 04:06:21;;;;;;;1.50;1.40;;;;;;;3.37;100.00;98056.59;5033901;28;20045;-62
2022/02/22 04:08:47;;;;;;;3.63;1.47;;;;;;;3.32;100.00;98057.44;5034190;28;20495;-60
2022/02/22 04:11:12;;;;;;;1.03;0.93;;;;;;;3.36;100.00;98062.50;5029968;28;20047;-61
2022/02/22 04:13:38;;;;;;;0.97;0.97;;;;;;;3.35;100.00;98062.53;5030244;28;20497;-61
2022/02/22 04:16:04;;;;;;;0.97;0.83;;;;;;;3.40;100.00;98068.41;5031591;28;20068;-61
2022/02/22 04:18:29;;;;;;;3.03;1.57;;;;;;;3.37;100.00;98068.41;5036291;28;20402;-61
2022/02/22 04:20:55;;;;;;;0.80;0.80;;;;;;;3.42;100.00;98069.28;5035133;28;20670;-61
2022/02/22 04:23:20;;;;;;;2.73;0.80;;;;;;;3.48;100.00;98075.16;5034897;28;20088;-60
2022/02/22 04:25:48;;;;;;;1.77;1.03;;;;;;;3.45;100.00;98082.78;5037145;28;20048;-60
2022/02/22 04:28:13;;;;;;;2.53;0.93;;;;;;;3.50;100.00;98077.72;5036871;28;20471;-61
2022/02/22 04:30:39;;;;;;;2.30;1.20;;;;;;;3.52;100.00;98076.03;5033861;28;20045;-60
2022/02/22 04:33:04;;;;;;;6.53;1.70;;;;;;;3.54;100.00;98079.41;5035171;28;20493;-61
2022/02/22 04:35:29;;;;;;;1.40;0.87;;;;;;;3.63;100.00;98072.66;5037730;28;20139;-60
2022/02/22 04:37:55;;;;;;;1.00;0.80;;;;;;;3.67;100.00;98074.34;5038390;28;20045;-61
2022/02/22 04:40:20;;;;;;;1.53;0.67;;;;;;;3.81;100.00;98076.88;5035916;28;20045;-61
2022/02/22 04:42:48;;;;;;;2.70;0.90;;;;;;;3.94;100.00;98065.00;5036026;28;20037;-64
2022/02/22 04:45:14;;;;;;;1.53;1.10;;;;;;;3.94;100.00;98060.78;5037760;28;20136;-60
2022/02/22 04:47:39;;;;;;;1.10;0.77;;;;;;;4.02;100.00;98056.53;5034178;28;20461;-58
2022/02/22 04:50:05;;;;;;;1.47;1.03;;;;;;;3.96;100.00;98064.16;5033288;28;20044;-60
2022/02/22 04:52:31;;;;;;;6.37;0.93;;;;;;;4.02;100.00;98051.47;5036303;28;20108;-60
2022/02/22 04:54:59;;;;;;;4.47;1.30;;;;;;;4.02;100.00;98053.16;5035716;28;20095;-61
2022/02/22 04:57:24;;;;;;;4.20;1.10;;;;;;;4.08;100.00;98045.50;5034798;28;20034;-60
2022/02/22 04:59:50;;;;;;;1.77;1.40;;;;;;;4.06;100.00;98054.84;5034578;28;20075;-59
2022/02/22 05:02:15;;;;;;;1.57;1.07;;;;;;;4.13;100.00;98069.19;5033945;28;20049;-61
2022/02/22 05:04:40;;;;;;;5.80;1.20;;;;;;;4.12;100.00;98054.78;5033007;28;20067;-61
2022/02/22 05:07:06;;;;;;;1.83;1.10;;;;;;;4.13;100.00;98059.03;5034599;28;20037;-60
2022/02/22 05:09:31;;;;;;;1.17;1.07;;;;;;;4.11;100.00;98055.66;5033817;28;20484;-61
2022/02/22 05:11:57;;;;;;;2.77;1.07;;;;;;;4.17;100.00;98049.72;5035258;28;20048;-60
2022/02/22 05:14:22;;;;;;;4.23;1.80;;;;;;;4.11;100.00;98053.13;5035311;28;20040;-61
2022/02/22 05:16:47;;;;;;;2.47;1.10;;;;;;;4.07;100.00;98061.59;5034527;28;20834;-59
2022/02/22 05:19:13;;;;;;;0.83;0.80;;;;;;;4.05;100.00;98081.88;5033588;28;20041;-60
2022/02/22 05:21:38;;;;;;;1.70;0.97;;;;;;;4.02;100.00;98078.50;5034209;28;20144;-59
2022/02/22 05:24:04;;;;;;;0.90;0.80;;;;;;;4.15;100.00;98110.63;5035840;28;20046;-60
2022/02/22 05:26:30;;;;;;;1.10;0.80;;;;;;;4.17;100.00;98103.84;5034993;28;20112;-60
2022/02/22 05:28:55;;;;;;;1.00;0.90;;;;;;;4.19;100.00;98103.84;5034920;28;20044;-59
2022/02/22 05:31:21;;;;;;;0.67;0.60;;;;;;;4.22;100.00;98117.34;5036786;28;20048;-61
2022/02/22 05:33:46;;;;;;;2.33;1.60;;;;;;;4.22;100.00;98124.13;5033423;28;20529;-60
2022/02/22 05:36:12;;;;;;;2.77;1.90;;;;;;;4.25;100.00;98121.56;5034622;28;20051;-59
2022/02/22 05:38:39;;;;;;;2.00;0.90;;;;;;;4.28;100.00;98136.81;5034493;28;20701;-59
2022/02/22 05:41:05;;;;;;;1.00;0.83;;;;;;;4.21;100.00;98155.41;5035557;28;20040;-59
2022/02/22 05:43:30;;;;;;;1.40;1.30;;;;;;;4.20;100.00;98162.16;5036000;28;20044;-60
2022/02/22 05:45:56;;;;;;;0.60;0.60;;;;;;;4.13;100.00;98168.09;5033121;28;20641;-60
2022/02/22 05:48:22;;;;;;;0.80;0.80;;;;;;;4.25;100.00;98174.84;5032659;28;20042;-59
2022/02/22 05:50:47;;;;;;;1.00;1.00;;;;;;;4.21;100.00;98179.06;5034106;28;20052;-59
2022/02/22 05:53:13;;;;;;;0.67;0.67;;;;;;;4.06;100.00;98179.09;5035970;28;20079;-61
2022/02/22 06:11:42;;;;;;;1.17;0.90;;;;;;;4.42;100.00;98206.97;5024690;28;20046;-53
2022/02/22 06:14:08;;;;;;;1.43;1.33;;;;;;;4.44;100.00;98201.91;5023727;28;20037;-55
2022/02/22 06:16:33;;;;;;;0.80;0.80;;;;;;;4.51;100.00;98217.09;5031771;28;20043;-54
2022/02/22 06:18:58;;;;;;;1.43;0.80;;;;;;;4.46;100.00;98206.09;5029562;28;20049;-56
2022/02/22 06:21:24;;;;;;;1.00;0.90;;;;;;;4.47;100.00;98207.81;5030894;28;20478;-56
2022/02/22 06:23:50;;;;;;;1.77;1.40;;;;;;;4.49;100.00;98218.81;5028646;28;20041;-56
2022/02/22 06:26:15;;;;;;;1.10;1.00;;;;;;;4.44;100.00;98220.50;5032339;28;20048;-55
2022/02/22 06:28:41;;;;;;;1.90;1.00;;;;;;;4.53;100.00;98206.97;5035885;28;20757;-57
2022/02/22 06:31:06;;;;;;;1.10;1.10;;;;;;;4.54;100.00;98234.03;5034656;28;20048;-57
2022/02/22 06:33:33;;;;;;;1.47;1.17;;;;;;;4.55;100.00;98220.47;5030832;28;20110;-57
2022/02/22 06:35:58;;;;;;;0.87;0.70;;;;;;;4.55;100.00;98233.16;5032521;28;20045;-56
2022/02/22 06:38:24;;;;;;;3.70;1.20;;;;;;;4.60;100.00;98242.47;5032505;28;20056;-56
2022/02/22 06:40:49;;;;;;;1.50;1.40;;;;;;;4.60;100.00;98246.69;5031268;28;20029;-54
2022/02/22 06:43:15;;;;;;;3.80;1.50;;;;;;;4.69;100.00;98253.47;5030651;28;20506;-57
2022/02/22 06:45:40;;;;;;;2.23;1.73;;;;;;;4.75;100.00;98250.91;5030625;28;20132;-57
2022/02/22 06:48:06;;;;;;;3.87;1.27;;;;;;;4.77;100.00;98257.69;5032070;28;20067;-54
2022/02/22 06:50:33;;;;;;;1.17;1.07;;;;;;;4.77;100.00;98267.84;5031024;28;20037;-54
2022/02/22 06:52:59;;;;;;;1.20;1.13;;;;;;;4.83;100.00;98266.97;5029093;28;20075;-55
2022/02/22 06:55:25;;;;;;;2.00;1.20;;;;;;;4.89;100.00;98277.13;5030933;28;20037;-55
2022/02/22 06:57:54;;;;;;;1.40;1.30;;;;;;;4.94;100.00;98283.03;5032163;28;20398;-52
2022/02/22 07:00:21;;;;;;;0.83;0.83;;;;;;;4.95;100.00;98290.66;5030573;28;20471;-55
2022/02/22 07:02:47;;;;;;;1.30;1.20;;;;;;;4.98;100.00;98288.09;5030086;28;20051;-55
2022/02/22 07:05:13;;;;;;;1.97;0.97;;;;;;;5.06;100.00;98291.47;5029984;28;20751;-54
2022/02/22 07:07:38;;;;;;;1.60;1.03;;;;;;;5.05;100.00;98297.38;5033830;28;20041;-55
2022/02/22 07:10:08;;;;;;;1.40;1.10;;;;;;;5.03;100.00;98305.88;5031417;28;20045;-56
2022/02/22 07:12:33;;;;;;;1.70;1.00;;;;;;;5.07;100.00;98303.31;5030047;28;20100;-57
2022/02/22 07:14:59;;;;;;;1.60;1.07;;;;;;;5.15;100.00;98317.69;5031935;28;20037;-57
2022/02/22 07:17:24;;;;;;;1.20;1.10;;;;;;;5.16;100.00;98307.53;5034492;28;20042;-58
2022/02/22 07:19:51;;;;;;;1.20;1.10;;;;;;;5.22;100.00;98315.13;5030338;28;20032;-57
2022/02/22 07:22:17;;;;;;;3.03;1.00;;;;;;;5.26;100.00;98314.25;5031851;28;20516;-53
2022/02/22 07:24:42;;;;;;;3.13;0.90;;;;;;;5.25;100.00;98321.91;5031522;28;20115;-55
2022/02/22 07:27:08;;;;;;;0.90;0.90;;;;;;;5.27;100.00;98322.75;5031447;28;20046;-56
2022/02/22 07:29:33;;;;;;;1.63;0.90;;;;;;;5.32;100.00;98329.50;5031468;28;20965;-57
2022/02/22 07:31:59;;;;;;;1.43;1.33;;;;;;;5.38;100.00;98332.03;5032190;28;20123;-59
2022/02/22 07:34:24;;;;;;;1.90;0.93;;;;;;;5.35;100.00;98331.19;5033737;28;20128;-58
2022/02/22 07:36:50;;;;;;;1.27;0.80;;;;;;;5.41;100.00;98337.09;5032894;28;20036;-59
2022/02/22 07:39:15;;;;;;;0.87;0.87;;;;;;;5.55;100.00;98337.06;5028672;28;20100;-59
2022/02/22 07:41:41;;;;;;;2.50;1.00;;;;;;;5.52;100.00;98348.06;5030017;28;20110;-56
2022/02/22 07:44:06;;;;;;;1.53;1.43;;;;;;;5.46;100.00;98368.44;5032816;28;20152;-59
2022/02/22 07:46:32;;;;;;;1.37;0.80;;;;;;;5.20;100.00;98366.81;5031285;28;20048;-59
2022/02/22 07:48:58;;;;;;;2.03;1.20;;;;;;;5.05;100.00;98382.91;5029224;28;20049;-58
2022/02/22 07:51:23;;;;;;;1.83;1.60;;;;;;;4.95;100.00;98374.47;5030564;28;20482;-60
2022/02/22 07:53:49;;;;;;;2.43;1.00;;;;;;;5.08;100.00;98382.94;5034932;28;20096;-59
2022/02/22 07:56:15;;;;;;;2.07;1.20;;;;;;;5.12;100.00;98377.00;5037087;28;20104;-59
2022/02/22 07:58:41;;;;;;;1.40;1.30;;;;;;;5.16;100.00;98371.06;5034036;28;20041;-61
2022/02/22 08:01:08;;;;;;;5.30;4.83;;;;;;;5.27;100.00;98382.03;5034853;28;20065;-59
2022/02/22 08:03:34;;;;;;;2.10;1.30;;;;;;;5.35;100.00;98395.56;5036223;28;20060;-60
2022/02/22 08:05:59;;;;;;;4.50;1.30;;;;;;;5.41;100.00;98394.72;5036023;28;20041;-60
2022/02/22 08:08:26;;;;;;;1.60;1.40;;;;;;;5.40;100.00;98393.88;5035794;28;20040;-60
2022/02/22 08:10:51;;;;;;;1.00;1.00;;;;;;;5.45;100.00;98397.25;5035568;28;20075;-60
2022/02/22 08:13:17;;;;;;;1.30;1.20;;;;;;;5.46;100.00;98410.81;5034632;28;20041;-59
2022/02/22 08:15:42;;;;;;;0.93;0.93;;;;;;;5.48;100.00;98404.88;5034944;28;20063;-60
2022/02/22 08:18:08;;;;;;;1.57;1.47;;;;;;;5.55;100.00;98409.94;5034640;28;20045;-59
2022/02/22 08:20:33;;;;;;;1.93;1.10;;;;;;;5.56;100.00;98416.72;5032953;28;20927;-58
2022/02/22 08:23:00;;;;;;;2.77;1.03;;;;;;;5.65;100.00;98417.53;5035203;28;20029;-60
2022/02/22 08:25:26;;;;;;;1.23;1.10;;;;;;;5.77;100.00;98417.50;5034168;28;20062;-59
2022/02/22 08:27:51;;;;;;;0.97;0.87;;;;;;;5.82;100.00;98437.81;5030912;28;20041;-59
2022/02/22 08:30:17;;;;;;;1.47;0.90;;;;;;;5.90;100.00;98436.97;5034280;28;20132;-60
2022/02/22 08:32:42;;;;;;;0.90;0.67;;;;;;;5.83;100.00;98442.06;5034399;28;20041;-60
2022/02/22 08:35:08;;;;;;;0.97;0.87;;;;;;;5.83;100.00;98447.16;5034764;28;20114;-61
2022/02/22 08:37:33;;;;;;;1.03;1.03;;;;;;;5.86;100.00;98442.94;5032368;28;20041;-59
2022/02/22 08:39:58;;;;;;;5.13;1.27;;;;;;;6.00;100.00;98459.84;5034474;28;20033;-58
2022/02/22 08:42:24;;;;;;;0.93;0.93;;;;;;;5.93;100.00;98464.97;5034707;28;20152;-57
2022/02/22 08:44:49;;;;;;;3.23;0.80;;;;;;;5.91;100.00;98456.50;5034770;28;20034;-57
2022/02/22 08:47:15;;;;;;;1.43;1.33;;;;;;;5.91;100.00;98450.56;5033459;28;20037;-56
2022/02/22 08:49:42;;;;;;;1.30;1.20;;;;;;;5.72;100.00;98448.91;5034299;28;20827;-58
2022/02/22 08:52:07;;;;;;;2.10;1.10;;;;;;;5.75;100.00;98464.13;5034919;28;20037;-59
2022/02/22 08:54:32;;;;;;;1.53;1.40;;;;;;;5.83;100.00;98470.03;5032375;28;20041;-59
2022/02/22 08:56:58;;;;;;;2.07;1.20;;;;;;;5.90;100.00;98482.78;5032372;28;20103;-57
2022/02/22 08:59:24;;;;;;;20.70;19.80;;;;;;;5.87;100.00;98492.13;5035245;28;20068;-55
2022/02/22 09:01:49;;;;;;;1.40;1.30;;;;;;;5.70;100.00;98516.72;5035688;28;20049;-58
2022/02/22 09:04:14;;;;;;;2.13;1.23;;;;;;;5.61;100.00;98486.19;5033028;28;20045;-58
2022/02/22 09:06:40;;;;;;;3.83;1.27;;;;;;;5.65;100.00;98496.38;5031324;28;20148;-58
2022/02/22 09:09:05;;;;;;;0.93;0.90;;;;;;;5.69;100.00;98494.66;5033194;28;20548;-58
2022/02/22 09:11:31;;;;;;;22.57;21.60;;;;;;;5.83;100.00;98515.84;5033983;28;20045;-57
2022/02/22 09:13:57;;;;;;;2.97;2.00;;;;;;;5.72;100.00;98520.97;5032461;28;20041;-57
2022/02/22 09:16:22;;;;;;;61.47;57.57;;;;;;;5.59;100.00;98529.44;5032740;28;20104;-57
2022/02/22 09:18:48;;;;;;;108.93;71.03;;;;;;;5.47;100.00;98553.16;5032681;28;20691;-57
2022/02/22 09:21:13;;;;;;;138.00;125.00;;;;;;;5.33;100.00;98528.59;5033140;28;20053;-60
2022/02/22 09:23:39;;;;;;;301.13;175.37;;;;;;;5.37;100.00;98530.31;5030577;28;20037;-61
2022/02/22 09:26:04;;;;;;;23.33;21.73;;;;;;;5.25;100.00;98538.78;5035435;28;20511;-59
2022/02/22 09:28:29;;;;;;;1.03;0.70;;;;;;;5.40;100.00;98537.91;5035334;28;20029;-58
2022/02/22 09:30:55;;;;;;;10.17;9.67;;;;;;;5.40;100.00;98550.63;5033544;28;20044;-59
2022/02/22 09:33:20;;;;;;;1.60;1.07;;;;;;;5.55;100.00;98543.00;5032370;28;20042;-59
2022/02/22 09:35:46;;;;;;;3.13;1.27;;;;;;;5.70;100.00;98542.13;5032962;28;20076;-60
2022/02/22 09:38:12;;;;;;;3.60;1.10;;;;;;;5.69;100.00;98542.97;5036211;28;20041;-59
2022/02/22 09:40:40;;;;;;;1.43;1.33;;;;;;;5.77;100.00;98537.03;5033349;28;20107;-57
2022/02/22 09:43:06;;;;;;;1.20;0.93;;;;;;;5.94;100.00;98544.69;5032213;28;20079;-61
2022/02/22 09:45:31;;;;;;;82.70;76.50;;;;;;;6.03;100.00;98544.66;5033247;28;20120;-60
2022/02/22 09:48:01;;;;;;;1.63;1.10;;;;;;;6.15;100.00;98579.44;5034883;28;20064;-57
2022/02/22 09:50:27;;;;;;;0.80;0.80;;;;;;;5.90;100.00;98583.69;5035106;28;20129;-59
2022/02/22 09:52:53;;;;;;;2.40;0.90;;;;;;;5.90;100.00;98573.50;5032587;28;20041;-54
2022/02/22 09:55:18;;;;;;;1.90;1.10;;;;;;;6.12;100.00;98584.50;5033194;28;20112;-58
2022/02/22 09:57:44;;;;;;;1.33;1.10;;;;;;;6.18;100.00;98572.63;5035793;28;20041;-58
2022/02/22 10:00:18;;;;;;;3.67;1.10;;;;;;;6.37;100.00;98586.13;5033705;28;20044;-59
2022/02/22 10:02:44;;;;;;;4.30;2.17;;;;;;;6.30;100.00;98608.22;5030571;28;20107;-58
2022/02/22 10:05:21;;;;;;;1.30;1.07;;;;;;;5.76;100.00;98628.63;5032655;28;20133;-60
2022/02/22 10:07:54;;;;;;;1.27;0.83;;;;;;;5.20;100.00;98605.69;5032857;28;20033;-57
2022/02/22 10:10:41;;;;;;;1.23;0.90;;;;;;;5.14;100.00;98598.03;5035233;28;20045;-57
2022/02/22 10:13:17;;;;;;;2.43;1.67;;;;;;;5.14;100.00;98611.59;5036828;28;20075;-58
2022/02/22 10:15:44;;;;;;;2.30;1.37;;;;;;;5.16;100.00;98598.91;5032948;28;20762;-59
2022/02/22 10:18:11;;;;;;;3.60;1.40;;;;;;;5.34;100.00;98620.13;5031087;28;20063;-57
2022/02/22 10:20:40;;;;;;;2.13;1.17;;;;;;;5.37;100.00;98604.88;5032347;28;20266;-59
2022/02/22 10:23:06;;;;;;;1.97;1.40;;;;;;;5.60;100.00;98581.97;5041886;28;20128;-60
2022/02/22 10:25:33;;;;;;;1.33;1.10;;;;;;;5.82;100.00;98573.50;5034661;28;20048;-56
2022/02/22 10:28:00;;;;;;;3.27;1.07;;;;;;;5.80;100.00;98610.81;5031084;28;20098;-61
2022/02/22 10:30:41;;;;;;;33.17;23.30;;;;;;;5.95;100.00;98584.53;5033805;28;20029;-60
2022/02/22 10:33:22;;;;;;;5.73;1.20;;;;;;;5.93;100.00;98596.44;5034680;28;20075;-60
2022/02/22 10:35:58;;;;;;;411.23;191.17;;;;;;;5.82;100.00;98609.09;5032187;28;20049;-60
2022/02/22 10:38:31;;;;;;;423.03;191.63;;;;;;;5.89;100.00;98597.28;5035823;28;20037;-59
2022/02/22 10:41:15;;;;;;;461.70;217.20;;;;;;;5.96;100.00;98596.41;5034996;28;20037;-58
2022/02/22 10:43:52;;;;;;;160.17;145.10;;;;;;;6.32;100.00;98605.69;5032739;28;20483;-58
2022/02/22 10:46:24;;;;;;;413.73;200.67;;;;;;;6.23;100.00;98605.72;5032480;28;20038;-61
2022/02/22 10:48:49;;;;;;;271.17;165.73;;;;;;;6.22;100.00;98621.81;5035272;28;20094;-59
2022/02/22 10:51:16;;;;;;;332.77;218.93;;;;;;;6.20;97.58;98608.22;5032909;28;20036;-59
2022/02/22 10:53:44;;;;;;;279.93;179.53;;;;;;;6.32;97.38;98618.41;5032850;28;20098;-56
2022/02/22 10:56:12;;;;;;;90.37;80.30;;;;;;;6.40;96.93;98614.16;5034263;28;20040;-59
2022/02/22 10:58:40;;;;;;;126.10;97.00;;;;;;;6.58;99.53;98620.88;5034403;28;20041;-59
2022/02/22 11:01:13;;;;;;;17.67;16.30;;;;;;;6.58;91.59;98596.25;5034277;28;20071;-60
2022/02/22 11:03:45;;;;;;;36.33;33.47;;;;;;;6.66;91.93;98621.72;5031864;28;20075;-59
2022/02/22 11:06:11;;;;;;;4.53;2.40;;;;;;;6.56;87.49;98617.50;5034439;28;20036;-59
2022/02/22 11:08:46;;;;;;;5.17;1.30;;;;;;;6.59;89.37;98613.22;5032636;28;20048;-60
2022/02/22 11:11:27;;;;;;;106.63;96.63;;;;;;;6.75;88.23;98634.38;5031588;28;20100;-60
2022/02/22 11:14:01;;;;;;;282.90;173.87;;;;;;;6.89;92.17;98620.75;5034040;28;20055;-56
2022/02/22 11:16:39;;;;;;;181.45;147.65;;;;;;;6.88;93.83;98644.53;5035171;28;20043;-59
2022/02/22 11:19:14;;;;;;;238.40;210.47;;;;;;;6.24;100.00;98648.97;5033538;28;20053;-57
2022/02/22 11:21:39;;;;;;;174.60;160.90;;;;;;;5.83;100.00;98655.75;5030900;28;20029;-58
2022/02/22 11:24:09;;;;;;;235.23;210.10;;;;;;;5.71;100.00;98663.38;5029889;28;20053;-58
2022/02/22 11:26:47;;;;;;;63.87;59.67;;;;;;;5.64;100.00;98642.19;5032042;28;20041;-57
2022/02/22 11:29:13;;;;;;;194.67;176.87;;;;;;;5.50;100.00;98646.41;5031726;28;20045;-58
2022/02/22 11:31:39;;;;;;;169.77;155.77;;;;;;;5.49;100.00;98639.63;5030017;28;20036;-56
2022/02/22 11:34:05;;;;;;;148.67;136.37;;;;;;;5.71;100.00;98636.25;5031732;28;20758;-58
2022/02/22 11:36:36;;;;;;;121.43;111.80;;;;;;;6.00;100.00;98648.13;5032230;28;20656;-57
2022/02/22 11:39:05;;;;;;;148.87;137.30;;;;;;;6.22;100.00;98629.47;5032417;28;20052;-59
2022/02/22 11:41:43;;;;;;;205.17;187.00;;;;;;;6.34;100.00;98624.34;5030829;28;20106;-60
2022/02/22 11:44:17;;;;;;;80.03;75.57;;;;;;;6.34;96.89;98630.28;5031521;28;20116;-60